sensor_id;sensor_type;location;lat;lon;timestamp;P1;durP1;ratioP1;P2;durP2;ratioP2
3189;SDS011;1606;51.946;10.558;2024-02-26T00:00:12;7.63;;;3.30;;
3189;SDS011;1606;51.946;10.558;2024-02-26T00:02:41;6.87;;;3.27;;
3189;SDS011;1606;51.946;10.558;2024-02-26T00:05:09;6.80;;;3.30;;
3189;SDS011;1606;51.946;10.558;2024-02-26T00:07:37;7.07;;;3.30;;
3189;SDS011;1606;51.946;10.558;2024-02-26T00:10:05;7.10;;;3.30;;
3189;SDS011;1606;51.946;10.558;2024-02-26T00:12:34;6.70;;;3.23;;
3189;SDS011;1606;51.946;10.558;2024-02-26T00:15:02;6.70;;;3.13;;
3189;SDS011;1606;51.946;10.558;2024-02-26T00:17:32;6.47;;;2.63;;
3189;SDS011;1606;51.946;10.558;2024-02-26T00:20:00;8.00;;;3.40;;
3189;SDS011;1606;51.946;10.558;2024-02-26T00:22:28;7.97;;;3.73;;
3189;SDS011;1606;51.946;10.558;2024-02-26T00:24:56;7.70;;;3.23;;
3189;SDS011;1606;51.946;10.558;2024-02-26T00:27:24;7.43;;;2.83;;
3189;SDS011;1606;51.946;10.558;2024-02-26T00:29:52;8.23;;;3.40;;
3189;SDS011;1606;51.946;10.558;2024-02-26T00:32:20;8.30;;;4.03;;
3189;SDS011;1606;51.946;10.558;2024-02-26T00:34:50;9.47;;;3.93;;
3189;SDS011;1606;51.946;10.558;2024-02-26T00:37:18;9.13;;;4.23;;
3189;SDS011;1606;51.946;10.558;2024-02-26T00:39:46;9.30;;;4.30;;
3189;SDS011;1606;51.946;10.558;2024-02-26T00:42:13;8.07;;;3.83;;
3189;SDS011;1606;51.946;10.558;2024-02-26T00:44:41;7.13;;;3.67;;
3189;SDS011;1606;51.946;10.558;2024-02-26T00:47:09;8.13;;;3.60;;
3189;SDS011;1606;51.946;10.558;2024-02-26T00:49:37;7.33;;;3.40;;
3189;SDS011;1606;51.946;10.558;2024-02-26T00:52:06;7.90;;;3.47;;
3189;SDS011;1606;51.946;10.558;2024-02-26T00:54:34;8.97;;;3.20;;
3189;SDS011;1606;51.946;10.558;2024-02-26T00:57:02;7.10;;;3.20;;
3189;SDS011;1606;51.946;10.558;2024-02-26T00:59:30;7.73;;;3.70;;
3189;SDS011;1606;51.946;10.558;2024-02-26T01:01:58;7.77;;;3.87;;
3189;SDS011;1606;51.946;10.558;2024-02-26T01:04:28;8.67;;;3.23;;
3189;SDS011;1606;51.946;10.558;2024-02-26T01:06:56;7.30;;;3.30;;
3189;SDS011;1606;51.946;10.558;2024-02-26T01:09:25;7.90;;;3.03;;
3189;SDS011;1606;51.946;10.558;2024-02-26T01:11:53;8.70;;;3.93;;
3189;SDS011;1606;51.946;10.558;2024-02-26T01:14:21;6.90;;;3.37;;
3189;SDS011;1606;51.946;10.558;2024-02-26T01:16:49;8.30;;;3.57;;
3189;SDS011;1606;51.946;10.558;2024-02-26T01:19:17;10.17;;;3.90;;
3189;SDS011;1606;51.946;10.558;2024-02-26T01:21:45;7.60;;;3.20;;
3189;SDS011;1606;51.946;10.558;2024-02-26T01:24:13;7.07;;;3.27;;
3189;SDS011;1606;51.946;10.558;2024-02-26T01:26:43;8.40;;;3.67;;
3189;SDS011;1606;51.946;10.558;2024-02-26T01:29:10;8.10;;;3.80;;
3189;SDS011;1606;51.946;10.558;2024-02-26T01:31:39;7.30;;;3.40;;
3189;SDS011;1606;51.946;10.558;2024-02-26T01:34:07;8.77;;;4.37;;
3189;SDS011;1606;51.946;10.558;2024-02-26T01:36:35;8.60;;;3.73;;
3189;SDS011;1606;51.946;10.558;2024-02-26T01:39:03;13.70;;;4.70;;
3189;SDS011;1606;51.946;10.558;2024-02-26T01:41:30;11.03;;;4.90;;
3189;SDS011;1606;51.946;10.558;2024-02-26T01:44:00;8.80;;;3.20;;
3189;SDS011;1606;51.946;10.558;2024-02-26T01:46:27;8.70;;;3.57;;
3189;SDS011;1606;51.946;10.558;2024-02-26T01:48:57;7.77;;;3.37;;
3189;SDS011;1606;51.946;10.558;2024-02-26T01:51:26;7.67;;;3.67;;
3189;SDS011;1606;51.946;10.558;2024-02-26T01:53:53;9.87;;;3.40;;
3189;SDS011;1606;51.946;10.558;2024-02-26T01:56:22;8.13;;;3.27;;
3189;SDS011;1606;51.946;10.558;2024-02-26T01:58:54;8.00;;;3.40;;
3189;SDS011;1606;51.946;10.558;2024-02-26T02:01:24;6.63;;;2.80;;
3189;SDS011;1606;51.946;10.558;2024-02-26T02:03:54;7.87;;;3.23;;
3189;SDS011;1606;51.946;10.558;2024-02-26T02:06:25;7.20;;;2.73;;
3189;SDS011;1606;51.946;10.558;2024-02-26T02:08:54;6.90;;;2.90;;
3189;SDS011;1606;51.946;10.558;2024-02-26T02:11:22;7.27;;;3.47;;
3189;SDS011;1606;51.946;10.558;2024-02-26T02:13:50;7.57;;;3.33;;
3189;SDS011;1606;51.946;10.558;2024-02-26T02:16:17;7.67;;;2.67;;
3189;SDS011;1606;51.946;10.558;2024-02-26T02:18:47;7.10;;;2.90;;
3189;SDS011;1606;51.946;10.558;2024-02-26T02:21:16;7.60;;;2.93;;
3189;SDS011;1606;51.946;10.558;2024-02-26T02:23:44;6.80;;;3.10;;
3189;SDS011;1606;51.946;10.558;2024-02-26T02:26:13;8.67;;;2.70;;
3189;SDS011;1606;51.946;10.558;2024-02-26T02:28:41;7.07;;;3.03;;
3189;SDS011;1606;51.946;10.558;2024-02-26T02:31:09;8.23;;;2.70;;
3189;SDS011;1606;51.946;10.558;2024-02-26T02:33:37;9.00;;;3.00;;
3189;SDS011;1606;51.946;10.558;2024-02-26T02:36:06;8.53;;;3.13;;
3189;SDS011;1606;51.946;10.558;2024-02-26T02:38:37;6.90;;;3.07;;
3189;SDS011;1606;51.946;10.558;2024-02-26T02:41:05;6.70;;;2.70;;
3189;SDS011;1606;51.946;10.558;2024-02-26T02:43:33;12.23;;;2.93;;
3189;SDS011;1606;51.946;10.558;2024-02-26T02:46:01;7.53;;;3.03;;
3189;SDS011;1606;51.946;10.558;2024-02-26T02:48:29;6.70;;;2.57;;
3189;SDS011;1606;51.946;10.558;2024-02-26T02:50:57;8.50;;;3.03;;
3189;SDS011;1606;51.946;10.558;2024-02-26T02:53:24;6.37;;;2.83;;
3189;SDS011;1606;51.946;10.558;2024-02-26T02:55:54;6.27;;;2.70;;
3189;SDS011;1606;51.946;10.558;2024-02-26T02:58:21;6.47;;;2.57;;
3189;SDS011;1606;51.946;10.558;2024-02-26T03:00:49;6.40;;;2.57;;
3189;SDS011;1606;51.946;10.558;2024-02-26T03:03:17;6.70;;;2.97;;
3189;SDS011;1606;51.946;10.558;2024-02-26T03:05:45;7.60;;;3.00;;
3189;SDS011;1606;51.946;10.558;2024-02-26T03:08:13;6.63;;;3.37;;
3189;SDS011;1606;51.946;10.558;2024-02-26T03:10:41;8.50;;;3.07;;
3189;SDS011;1606;51.946;10.558;2024-02-26T03:13:11;7.17;;;2.93;;
3189;SDS011;1606;51.946;10.558;2024-02-26T03:15:39;8.40;;;3.67;;
3189;SDS011;1606;51.946;10.558;2024-02-26T03:18:06;6.77;;;3.20;;
3189;SDS011;1606;51.946;10.558;2024-02-26T03:20:35;7.77;;;3.00;;
3189;SDS011;1606;51.946;10.558;2024-02-26T03:23:03;7.63;;;3.20;;
3189;SDS011;1606;51.946;10.558;2024-02-26T03:25:31;9.30;;;3.60;;
3189;SDS011;1606;51.946;10.558;2024-02-26T03:27:59;7.40;;;3.40;;
3189;SDS011;1606;51.946;10.558;2024-02-26T03:30:28;6.47;;;3.07;;
3189;SDS011;1606;51.946;10.558;2024-02-26T03:32:56;6.57;;;3.13;;
3189;SDS011;1606;51.946;10.558;2024-02-26T03:35:24;7.20;;;3.53;;
3189;SDS011;1606;51.946;10.558;2024-02-26T03:37:52;6.97;;;3.07;;
3189;SDS011;1606;51.946;10.558;2024-02-26T03:40:20;7.40;;;3.10;;
3189;SDS011;1606;51.946;10.558;2024-02-26T03:42:48;6.87;;;2.90;;
3189;SDS011;1606;51.946;10.558;2024-02-26T03:45:15;7.83;;;3.53;;
3189;SDS011;1606;51.946;10.558;2024-02-26T03:47:44;6.67;;;3.10;;
3189;SDS011;1606;51.946;10.558;2024-02-26T03:50:12;8.03;;;3.47;;
3189;SDS011;1606;51.946;10.558;2024-02-26T03:52:40;7.73;;;3.90;;
3189;SDS011;1606;51.946;10.558;2024-02-26T03:55:08;8.07;;;3.53;;
3189;SDS011;1606;51.946;10.558;2024-02-26T03:57:36;7.00;;;3.60;;
3189;SDS011;1606;51.946;10.558;2024-02-26T04:00:04;7.60;;;3.20;;
3189;SDS011;1606;51.946;10.558;2024-02-26T04:02:33;7.80;;;3.57;;
3189;SDS011;1606;51.946;10.558;2024-02-26T04:05:02;8.60;;;3.00;;
3189;SDS011;1606;51.946;10.558;2024-02-26T04:07:30;8.13;;;3.30;;
3189;SDS011;1606;51.946;10.558;2024-02-26T04:09:58;7.40;;;3.03;;
3189;SDS011;1606;51.946;10.558;2024-02-26T04:12:30;14.10;;;4.10;;
3189;SDS011;1606;51.946;10.558;2024-02-26T04:14:58;6.33;;;3.03;;
3189;SDS011;1606;51.946;10.558;2024-02-26T04:17:26;8.77;;;3.53;;
3189;SDS011;1606;51.946;10.558;2024-02-26T04:19:54;7.80;;;4.23;;
3189;SDS011;1606;51.946;10.558;2024-02-26T04:22:23;7.20;;;3.30;;
3189;SDS011;1606;51.946;10.558;2024-02-26T04:24:51;6.87;;;3.23;;
3189;SDS011;1606;51.946;10.558;2024-02-26T04:27:19;6.83;;;3.27;;
3189;SDS011;1606;51.946;10.558;2024-02-26T04:29:47;7.70;;;3.67;;
3189;SDS011;1606;51.946;10.558;2024-02-26T04:32:14;7.07;;;3.53;;
3189;SDS011;1606;51.946;10.558;2024-02-26T04:34:42;8.13;;;4.07;;
3189;SDS011;1606;51.946;10.558;2024-02-26T04:37:10;8.53;;;3.57;;
3189;SDS011;1606;51.946;10.558;2024-02-26T04:39:39;7.50;;;3.93;;
3189;SDS011;1606;51.946;10.558;2024-02-26T04:42:07;8.40;;;3.90;;
3189;SDS011;1606;51.946;10.558;2024-02-26T04:44:35;9.30;;;5.27;;
3189;SDS011;1606;51.946;10.558;2024-02-26T04:47:03;11.10;;;5.80;;
3189;SDS011;1606;51.946;10.558;2024-02-26T04:49:31;10.57;;;5.60;;
3189;SDS011;1606;51.946;10.558;2024-02-26T04:51:58;11.20;;;5.90;;
3189;SDS011;1606;51.946;10.558;2024-02-26T04:54:26;11.73;;;6.60;;
3189;SDS011;1606;51.946;10.558;2024-02-26T04:56:55;10.47;;;6.53;;
3189;SDS011;1606;51.946;10.558;2024-02-26T04:59:23;12.87;;;6.83;;
3189;SDS011;1606;51.946;10.558;2024-02-26T05:01:51;12.43;;;6.17;;
3189;SDS011;1606;51.946;10.558;2024-02-26T05:04:19;10.23;;;7.37;;
3189;SDS011;1606;51.946;10.558;2024-02-26T05:06:47;10.20;;;6.77;;
3189;SDS011;1606;51.946;10.558;2024-02-26T05:09:15;12.30;;;7.93;;
3189;SDS011;1606;51.946;10.558;2024-02-26T05:11:43;11.67;;;8.10;;
3189;SDS011;1606;51.946;10.558;2024-02-26T05:14:12;11.73;;;7.90;;
3189;SDS011;1606;51.946;10.558;2024-02-26T05:16:40;12.10;;;7.70;;
3189;SDS011;1606;51.946;10.558;2024-02-26T05:19:08;11.13;;;6.93;;
3189;SDS011;1606;51.946;10.558;2024-02-26T05:21:36;10.37;;;6.73;;
3189;SDS011;1606;51.946;10.558;2024-02-26T05:24:04;13.43;;;7.60;;
3189;SDS011;1606;51.946;10.558;2024-02-26T05:26:32;11.97;;;7.03;;
3189;SDS011;1606;51.946;10.558;2024-02-26T05:29:00;12.53;;;7.50;;
3189;SDS011;1606;51.946;10.558;2024-02-26T05:31:29;13.13;;;7.83;;
3189;SDS011;1606;51.946;10.558;2024-02-26T05:33:57;10.83;;;6.73;;
3189;SDS011;1606;51.946;10.558;2024-02-26T05:36:25;13.03;;;8.10;;
3189;SDS011;1606;51.946;10.558;2024-02-26T05:38:55;11.80;;;8.03;;
3189;SDS011;1606;51.946;10.558;2024-02-26T05:41:23;14.57;;;7.27;;
3189;SDS011;1606;51.946;10.558;2024-02-26T05:43:52;13.10;;;7.50;;
3189;SDS011;1606;51.946;10.558;2024-02-26T05:46:21;12.00;;;7.10;;
3189;SDS011;1606;51.946;10.558;2024-02-26T05:48:51;12.03;;;7.30;;
3189;SDS011;1606;51.946;10.558;2024-02-26T05:51:20;12.20;;;8.00;;
3189;SDS011;1606;51.946;10.558;2024-02-26T05:53:48;10.30;;;6.70;;
3189;SDS011;1606;51.946;10.558;2024-02-26T05:56:21;13.97;;;7.80;;
3189;SDS011;1606;51.946;10.558;2024-02-26T05:58:49;12.87;;;7.60;;
3189;SDS011;1606;51.946;10.558;2024-02-26T06:01:17;14.40;;;8.60;;
3189;SDS011;1606;51.946;10.558;2024-02-26T06:03:46;12.40;;;7.20;;
3189;SDS011;1606;51.946;10.558;2024-02-26T06:06:16;14.60;;;8.30;;
3189;SDS011;1606;51.946;10.558;2024-02-26T06:08:44;12.27;;;8.07;;
3189;SDS011;1606;51.946;10.558;2024-02-26T06:11:12;14.73;;;8.60;;
3189;SDS011;1606;51.946;10.558;2024-02-26T06:13:40;14.40;;;9.47;;
3189;SDS011;1606;51.946;10.558;2024-02-26T06:16:08;13.77;;;8.70;;
3189;SDS011;1606;51.946;10.558;2024-02-26T06:18:36;14.33;;;9.43;;
3189;SDS011;1606;51.946;10.558;2024-02-26T06:21:04;15.90;;;10.60;;
3189;SDS011;1606;51.946;10.558;2024-02-26T06:23:37;15.10;;;10.67;;
3189;SDS011;1606;51.946;10.558;2024-02-26T06:26:06;17.47;;;10.93;;
3189;SDS011;1606;51.946;10.558;2024-02-26T06:28:33;15.63;;;10.87;;
3189;SDS011;1606;51.946;10.558;2024-02-26T06:31:02;14.50;;;10.23;;
3189;SDS011;1606;51.946;10.558;2024-02-26T06:33:30;15.67;;;10.80;;
3189;SDS011;1606;51.946;10.558;2024-02-26T06:35:58;15.57;;;11.07;;
3189;SDS011;1606;51.946;10.558;2024-02-26T06:38:26;16.10;;;10.63;;
3189;SDS011;1606;51.946;10.558;2024-02-26T06:40:55;17.30;;;11.73;;
3189;SDS011;1606;51.946;10.558;2024-02-26T06:43:23;17.30;;;10.50;;
3189;SDS011;1606;51.946;10.558;2024-02-26T06:45:51;16.93;;;11.33;;
3189;SDS011;1606;51.946;10.558;2024-02-26T06:48:19;16.03;;;10.57;;
3189;SDS011;1606;51.946;10.558;2024-02-26T06:50:47;18.40;;;10.80;;
3189;SDS011;1606;51.946;10.558;2024-02-26T06:53:15;17.73;;;12.60;;
3189;SDS011;1606;51.946;10.558;2024-02-26T06:55:43;16.70;;;11.20;;
3189;SDS011;1606;51.946;10.558;2024-02-26T06:58:13;16.37;;;11.47;;
3189;SDS011;1606;51.946;10.558;2024-02-26T07:00:41;19.20;;;12.80;;
3189;SDS011;1606;51.946;10.558;2024-02-26T07:03:09;20.73;;;12.17;;
3189;SDS011;1606;51.946;10.558;2024-02-26T07:05:37;21.90;;;13.50;;
3189;SDS011;1606;51.946;10.558;2024-02-26T07:08:05;22.47;;;14.00;;
3189;SDS011;1606;51.946;10.558;2024-02-26T07:10:34;24.57;;;15.60;;
3189;SDS011;1606;51.946;10.558;2024-02-26T07:13:02;22.10;;;14.00;;
3189;SDS011;1606;51.946;10.558;2024-02-26T07:15:31;23.83;;;15.37;;
3189;SDS011;1606;51.946;10.558;2024-02-26T07:17:59;21.77;;;14.30;;
3189;SDS011;1606;51.946;10.558;2024-02-26T07:20:29;23.43;;;13.77;;
3189;SDS011;1606;51.946;10.558;2024-02-26T07:22:57;22.47;;;14.57;;
3189;SDS011;1606;51.946;10.558;2024-02-26T07:25:25;27.00;;;13.70;;
3189;SDS011;1606;51.946;10.558;2024-02-26T07:27:54;23.03;;;14.23;;
3189;SDS011;1606;51.946;10.558;2024-02-26T07:30:22;21.47;;;12.80;;
3189;SDS011;1606;51.946;10.558;2024-02-26T07:32:52;21.47;;;13.60;;
3189;SDS011;1606;51.946;10.558;2024-02-26T07:35:20;20.60;;;13.83;;
3189;SDS011;1606;51.946;10.558;2024-02-26T07:37:48;19.50;;;13.20;;
3189;SDS011;1606;51.946;10.558;2024-02-26T07:40:17;19.67;;;13.70;;
3189;SDS011;1606;51.946;10.558;2024-02-26T07:42:45;18.07;;;12.57;;
3189;SDS011;1606;51.946;10.558;2024-02-26T07:45:13;17.60;;;12.33;;
3189;SDS011;1606;51.946;10.558;2024-02-26T07:47:42;17.83;;;11.37;;
3189;SDS011;1606;51.946;10.558;2024-02-26T07:50:12;17.90;;;11.40;;
3189;SDS011;1606;51.946;10.558;2024-02-26T07:52:40;15.83;;;10.93;;
3189;SDS011;1606;51.946;10.558;2024-02-26T07:55:08;18.17;;;11.83;;
3189;SDS011;1606;51.946;10.558;2024-02-26T07:57:36;17.43;;;10.50;;
3189;SDS011;1606;51.946;10.558;2024-02-26T08:00:05;16.67;;;11.07;;
3189;SDS011;1606;51.946;10.558;2024-02-26T08:02:35;18.37;;;11.60;;
3189;SDS011;1606;51.946;10.558;2024-02-26T08:05:03;15.20;;;9.33;;
3189;SDS011;1606;51.946;10.558;2024-02-26T08:07:33;14.23;;;10.50;;
3189;SDS011;1606;51.946;10.558;2024-02-26T08:10:01;16.03;;;10.30;;
3189;SDS011;1606;51.946;10.558;2024-02-26T08:12:30;16.90;;;10.53;;
3189;SDS011;1606;51.946;10.558;2024-02-26T08:14:58;14.80;;;9.67;;
3189;SDS011;1606;51.946;10.558;2024-02-26T08:17:26;15.63;;;10.30;;
3189;SDS011;1606;51.946;10.558;2024-02-26T08:19:54;17.90;;;10.97;;
3189;SDS011;1606;51.946;10.558;2024-02-26T08:22:23;18.27;;;10.20;;
3189;SDS011;1606;51.946;10.558;2024-02-26T08:24:52;17.33;;;10.63;;
3189;SDS011;1606;51.946;10.558;2024-02-26T08:27:20;17.90;;;10.67;;
3189;SDS011;1606;51.946;10.558;2024-02-26T08:29:51;15.70;;;9.47;;
3189;SDS011;1606;51.946;10.558;2024-02-26T08:32:19;17.53;;;10.53;;
3189;SDS011;1606;51.946;10.558;2024-02-26T08:34:47;16.17;;;10.20;;
3189;SDS011;1606;51.946;10.558;2024-02-26T08:37:15;14.20;;;9.80;;
3189;SDS011;1606;51.946;10.558;2024-02-26T08:39:43;15.07;;;10.50;;
3189;SDS011;1606;51.946;10.558;2024-02-26T08:42:13;15.70;;;9.93;;
3189;SDS011;1606;51.946;10.558;2024-02-26T08:44:41;14.00;;;9.53;;
3189;SDS011;1606;51.946;10.558;2024-02-26T08:47:10;15.30;;;10.60;;
3189;SDS011;1606;51.946;10.558;2024-02-26T08:49:42;16.73;;;9.73;;
3189;SDS011;1606;51.946;10.558;2024-02-26T08:52:10;16.00;;;10.60;;
3189;SDS011;1606;51.946;10.558;2024-02-26T08:54:38;22.30;;;10.80;;
3189;SDS011;1606;51.946;10.558;2024-02-26T08:57:06;17.50;;;10.10;;
3189;SDS011;1606;51.946;10.558;2024-02-26T08:59:36;18.13;;;12.00;;
3189;SDS011;1606;51.946;10.558;2024-02-26T09:02:04;16.43;;;11.57;;
3189;SDS011;1606;51.946;10.558;2024-02-26T09:04:32;20.87;;;11.83;;
3189;SDS011;1606;51.946;10.558;2024-02-26T09:07:00;16.40;;;11.50;;
3189;SDS011;1606;51.946;10.558;2024-02-26T09:09:28;15.97;;;11.07;;
3189;SDS011;1606;51.946;10.558;2024-02-26T09:11:56;18.10;;;11.80;;
3189;SDS011;1606;51.946;10.558;2024-02-26T09:14:25;16.13;;;10.40;;
3189;SDS011;1606;51.946;10.558;2024-02-26T09:16:55;19.40;;;12.07;;
3189;SDS011;1606;51.946;10.558;2024-02-26T09:19:23;18.30;;;12.40;;
3189;SDS011;1606;51.946;10.558;2024-02-26T09:21:54;19.20;;;12.60;;
3189;SDS011;1606;51.946;10.558;2024-02-26T09:24:24;15.80;;;10.87;;
3189;SDS011;1606;51.946;10.558;2024-02-26T09:26:52;21.60;;;12.40;;
3189;SDS011;1606;51.946;10.558;2024-02-26T09:29:20;16.90;;;10.80;;
3189;SDS011;1606;51.946;10.558;2024-02-26T09:31:48;17.40;;;11.97;;
3189;SDS011;1606;51.946;10.558;2024-02-26T09:34:18;17.50;;;11.40;;
3189;SDS011;1606;51.946;10.558;2024-02-26T09:36:46;18.80;;;11.43;;
3189;SDS011;1606;51.946;10.558;2024-02-26T09:39:14;18.20;;;11.80;;
3189;SDS011;1606;51.946;10.558;2024-02-26T09:41:48;17.90;;;12.30;;
3189;SDS011;1606;51.946;10.558;2024-02-26T09:44:18;19.00;;;12.37;;
3189;SDS011;1606;51.946;10.558;2024-02-26T09:46:47;16.00;;;10.80;;
3189;SDS011;1606;51.946;10.558;2024-02-26T09:49:15;17.73;;;11.40;;
3189;SDS011;1606;51.946;10.558;2024-02-26T09:51:46;16.40;;;10.10;;
3189;SDS011;1606;51.946;10.558;2024-02-26T09:54:16;16.10;;;11.60;;
3189;SDS011;1606;51.946;10.558;2024-02-26T09:56:44;19.70;;;10.93;;
3189;SDS011;1606;51.946;10.558;2024-02-26T09:59:29;15.07;;;9.97;;
3189;SDS011;1606;51.946;10.558;2024-02-26T10:02:03;15.77;;;11.17;;
3189;SDS011;1606;51.946;10.558;2024-02-26T10:04:32;16.53;;;10.60;;
3189;SDS011;1606;51.946;10.558;2024-02-26T10:07:00;17.37;;;10.83;;
3189;SDS011;1606;51.946;10.558;2024-02-26T10:09:30;15.90;;;10.70;;
3189;SDS011;1606;51.946;10.558;2024-02-26T10:11:59;17.93;;;10.20;;
3189;SDS011;1606;51.946;10.558;2024-02-26T10:14:27;14.53;;;9.93;;
3189;SDS011;1606;51.946;10.558;2024-02-26T10:16:54;14.37;;;9.50;;
3189;SDS011;1606;51.946;10.558;2024-02-26T10:19:26;13.17;;;9.07;;
3189;SDS011;1606;51.946;10.558;2024-02-26T10:21:59;16.40;;;8.90;;
3189;SDS011;1606;51.946;10.558;2024-02-26T10:24:28;13.57;;;8.80;;
3189;SDS011;1606;51.946;10.558;2024-02-26T10:26:57;12.73;;;9.03;;
3189;SDS011;1606;51.946;10.558;2024-02-26T10:29:25;15.60;;;8.80;;
3189;SDS011;1606;51.946;10.558;2024-02-26T10:31:53;13.70;;;9.10;;
3189;SDS011;1606;51.946;10.558;2024-02-26T10:34:21;16.53;;;9.43;;
3189;SDS011;1606;51.946;10.558;2024-02-26T10:36:49;17.83;;;11.00;;
3189;SDS011;1606;51.946;10.558;2024-02-26T10:39:21;15.70;;;10.30;;
3189;SDS011;1606;51.946;10.558;2024-02-26T10:41:49;17.03;;;10.70;;
3189;SDS011;1606;51.946;10.558;2024-02-26T10:44:17;13.70;;;9.93;;
3189;SDS011;1606;51.946;10.558;2024-02-26T10:46:46;19.27;;;12.67;;
3189;SDS011;1606;51.946;10.558;2024-02-26T10:49:15;24.43;;;14.73;;
3189;SDS011;1606;51.946;10.558;2024-02-26T10:51:50;20.30;;;12.00;;
3189;SDS011;1606;51.946;10.558;2024-02-26T10:54:25;22.07;;;12.87;;
3189;SDS011;1606;51.946;10.558;2024-02-26T10:56:55;17.33;;;11.27;;
3189;SDS011;1606;51.946;10.558;2024-02-26T10:59:25;15.20;;;8.67;;
3189;SDS011;1606;51.946;10.558;2024-02-26T11:01:53;12.00;;;7.90;;
3189;SDS011;1606;51.946;10.558;2024-02-26T11:04:22;12.20;;;8.27;;
3189;SDS011;1606;51.946;10.558;2024-02-26T11:06:51;10.90;;;7.10;;
3189;SDS011;1606;51.946;10.558;2024-02-26T11:09:22;12.40;;;7.60;;
3189;SDS011;1606;51.946;10.558;2024-02-26T11:11:51;13.50;;;7.27;;
3189;SDS011;1606;51.946;10.558;2024-02-26T11:14:21;17.03;;;7.07;;
3189;SDS011;1606;51.946;10.558;2024-02-26T11:16:52;11.60;;;7.60;;
3189;SDS011;1606;51.946;10.558;2024-02-26T11:19:21;12.20;;;7.50;;
3189;SDS011;1606;51.946;10.558;2024-02-26T11:21:52;11.83;;;6.73;;
3189;SDS011;1606;51.946;10.558;2024-02-26T11:24:19;10.40;;;7.10;;
3189;SDS011;1606;51.946;10.558;2024-02-26T11:26:49;10.80;;;6.03;;
3189;SDS011;1606;51.946;10.558;2024-02-26T11:29:25;14.07;;;7.10;;
3189;SDS011;1606;51.946;10.558;2024-02-26T11:31:55;13.23;;;8.00;;
3189;SDS011;1606;51.946;10.558;2024-02-26T11:34:25;11.97;;;6.57;;
3189;SDS011;1606;51.946;10.558;2024-02-26T11:36:54;11.87;;;7.33;;
3189;SDS011;1606;51.946;10.558;2024-02-26T11:39:23;14.90;;;7.53;;
3189;SDS011;1606;51.946;10.558;2024-02-26T11:41:54;12.93;;;7.17;;
3189;SDS011;1606;51.946;10.558;2024-02-26T11:44:28;12.30;;;7.20;;
3189;SDS011;1606;51.946;10.558;2024-02-26T11:46:56;12.20;;;7.20;;
3189;SDS011;1606;51.946;10.558;2024-02-26T11:49:31;13.23;;;9.17;;
3189;SDS011;1606;51.946;10.558;2024-02-26T11:51:59;12.53;;;8.33;;
3189;SDS011;1606;51.946;10.558;2024-02-26T11:54:39;14.53;;;8.20;;
3189;SDS011;1606;51.946;10.558;2024-02-26T11:57:21;13.27;;;7.70;;
3189;SDS011;1606;51.946;10.558;2024-02-26T11:59:50;12.83;;;8.43;;
3189;SDS011;1606;51.946;10.558;2024-02-26T12:05:09;14.33;;;8.50;;
3189;SDS011;1606;51.946;10.558;2024-02-26T12:07:40;17.53;;;8.43;;
3189;SDS011;1606;51.946;10.558;2024-02-26T12:13:04;12.73;;;8.10;;
3189;SDS011;1606;51.946;10.558;2024-02-26T12:15:35;16.83;;;10.20;;
3189;SDS011;1606;51.946;10.558;2024-02-26T12:18:05;14.67;;;9.33;;
3189;SDS011;1606;51.946;10.558;2024-02-26T12:20:36;14.47;;;8.63;;
3189;SDS011;1606;51.946;10.558;2024-02-26T12:23:04;15.57;;;9.77;;
3189;SDS011;1606;51.946;10.558;2024-02-26T12:25:33;15.60;;;10.20;;
3189;SDS011;1606;51.946;10.558;2024-02-26T12:28:00;14.97;;;9.17;;
3189;SDS011;1606;51.946;10.558;2024-02-26T12:30:30;14.67;;;10.10;;
3189;SDS011;1606;51.946;10.558;2024-02-26T12:32:59;17.33;;;10.63;;
3189;SDS011;1606;51.946;10.558;2024-02-26T12:35:27;16.90;;;8.90;;
3189;SDS011;1606;51.946;10.558;2024-02-26T12:37:57;13.87;;;9.60;;
3189;SDS011;1606;51.946;10.558;2024-02-26T12:40:25;14.20;;;9.80;;
3189;SDS011;1606;51.946;10.558;2024-02-26T12:42:54;14.00;;;9.03;;
3189;SDS011;1606;51.946;10.558;2024-02-26T12:45:22;15.23;;;10.00;;
3189;SDS011;1606;51.946;10.558;2024-02-26T12:47:53;14.30;;;10.30;;
3189;SDS011;1606;51.946;10.558;2024-02-26T12:50:20;15.03;;;9.10;;
3189;SDS011;1606;51.946;10.558;2024-02-26T12:52:49;15.90;;;10.23;;
3189;SDS011;1606;51.946;10.558;2024-02-26T12:55:19;16.03;;;11.17;;
3189;SDS011;1606;51.946;10.558;2024-02-26T12:57:48;14.90;;;10.47;;
3189;SDS011;1606;51.946;10.558;2024-02-26T13:00:20;14.27;;;10.30;;
3189;SDS011;1606;51.946;10.558;2024-02-26T13:02:52;14.57;;;9.83;;
3189;SDS011;1606;51.946;10.558;2024-02-26T13:05:22;15.57;;;10.00;;
3189;SDS011;1606;51.946;10.558;2024-02-26T13:07:51;15.77;;;11.20;;
3189;SDS011;1606;51.946;10.558;2024-02-26T13:10:19;16.33;;;10.20;;
3189;SDS011;1606;51.946;10.558;2024-02-26T13:12:48;17.40;;;13.80;;
3189;SDS011;1606;51.946;10.558;2024-02-26T13:15:17;20.30;;;13.47;;
3189;SDS011;1606;51.946;10.558;2024-02-26T13:17:47;21.50;;;11.60;;
3189;SDS011;1606;51.946;10.558;2024-02-26T13:20:25;16.50;;;11.87;;
3189;SDS011;1606;51.946;10.558;2024-02-26T13:22:59;18.33;;;12.47;;
3189;SDS011;1606;51.946;10.558;2024-02-26T13:25:28;17.97;;;13.40;;
3189;SDS011;1606;51.946;10.558;2024-02-26T13:28:05;15.00;;;11.20;;
3189;SDS011;1606;51.946;10.558;2024-02-26T13:30:40;14.57;;;11.17;;
3189;SDS011;1606;51.946;10.558;2024-02-26T13:33:08;16.83;;;11.70;;
3189;SDS011;1606;51.946;10.558;2024-02-26T13:35:39;14.30;;;10.53;;
3189;SDS011;1606;51.946;10.558;2024-02-26T13:38:07;22.60;;;13.77;;
3189;SDS011;1606;51.946;10.558;2024-02-26T13:40:37;19.33;;;12.63;;
3189;SDS011;1606;51.946;10.558;2024-02-26T13:43:05;16.53;;;12.70;;
3189;SDS011;1606;51.946;10.558;2024-02-26T13:45:33;15.03;;;11.20;;
3189;SDS011;1606;51.946;10.558;2024-02-26T13:48:02;18.90;;;11.53;;
3189;SDS011;1606;51.946;10.558;2024-02-26T13:50:31;17.37;;;11.57;;
3189;SDS011;1606;51.946;10.558;2024-02-26T13:53:00;15.47;;;11.40;;
3189;SDS011;1606;51.946;10.558;2024-02-26T13:55:28;14.93;;;11.50;;
3189;SDS011;1606;51.946;10.558;2024-02-26T13:57:58;17.90;;;10.80;;
3189;SDS011;1606;51.946;10.558;2024-02-26T14:00:27;21.60;;;12.87;;
3189;SDS011;1606;51.946;10.558;2024-02-26T14:02:55;14.70;;;10.90;;
3189;SDS011;1606;51.946;10.558;2024-02-26T14:05:23;15.37;;;11.73;;
3189;SDS011;1606;51.946;10.558;2024-02-26T14:07:51;14.53;;;10.60;;
3189;SDS011;1606;51.946;10.558;2024-02-26T14:10:21;17.50;;;11.83;;
3189;SDS011;1606;51.946;10.558;2024-02-26T14:12:49;17.80;;;10.30;;
3189;SDS011;1606;51.946;10.558;2024-02-26T14:15:17;21.57;;;10.83;;
3189;SDS011;1606;51.946;10.558;2024-02-26T14:17:45;15.97;;;10.90;;
3189;SDS011;1606;51.946;10.558;2024-02-26T14:20:20;16.40;;;11.10;;
3189;SDS011;1606;51.946;10.558;2024-02-26T14:22:48;16.90;;;10.80;;
3189;SDS011;1606;51.946;10.558;2024-02-26T14:25:16;16.90;;;11.00;;
3189;SDS011;1606;51.946;10.558;2024-02-26T14:27:45;18.00;;;11.13;;
3189;SDS011;1606;51.946;10.558;2024-02-26T14:30:13;18.43;;;10.20;;
3189;SDS011;1606;51.946;10.558;2024-02-26T14:32:42;14.83;;;10.40;;
3189;SDS011;1606;51.946;10.558;2024-02-26T14:35:10;16.13;;;11.10;;
3189;SDS011;1606;51.946;10.558;2024-02-26T14:37:43;12.93;;;9.10;;
3189;SDS011;1606;51.946;10.558;2024-02-26T14:40:14;18.40;;;10.33;;
3189;SDS011;1606;51.946;10.558;2024-02-26T14:42:42;16.20;;;10.67;;
3189;SDS011;1606;51.946;10.558;2024-02-26T14:45:12;18.47;;;10.37;;
3189;SDS011;1606;51.946;10.558;2024-02-26T14:47:40;13.70;;;10.63;;
3189;SDS011;1606;51.946;10.558;2024-02-26T14:50:08;19.23;;;11.13;;
3189;SDS011;1606;51.946;10.558;2024-02-26T14:52:37;17.27;;;12.37;;
3189;SDS011;1606;51.946;10.558;2024-02-26T14:55:05;17.33;;;12.60;;
3189;SDS011;1606;51.946;10.558;2024-02-26T14:57:33;18.03;;;11.10;;
3189;SDS011;1606;51.946;10.558;2024-02-26T15:00:02;16.93;;;11.50;;